SBOSBO PFO / LCPH
Speedbird OnlineSpeedbird Online PFO / LCPH

Paphos International Airport
15:00 14.6°C

Location Paphos, Cyprus
Latitude: 34.71799850463867
Longitude: 32.48569869995117
Web Airport Website | Wikipedia
Altitude 12 Meter / 41 Feet
Distance 3,180 KM / 1,976 Miles
from London.
Time Zone UTC +2 hours (Asia/Nicosia)
Codes IATA: PFO
ICAO: LCPH
Currency £1 equals EUR 1.14
Runways
RunwayLength (m)Surface
112700Asphalt
292700Asphalt
Radio
TypeDescriptionFrequency
APPAPP120.8
TWRTWR119.9
Live ATC
METAR LCPH 311230Z 31022KT 9999 FEW020 BKN040 15/04 Q1006 NOSIG
TAF TAF LCPH 311130Z 3112/0112 32018KT 9999 FEW020 SCT030 BECMG 3117/3121 35008KT PROB40 TEMPO 0102/0112 5000 RA TS BKN022 FEW025CB PROB30 TEMPO 0105/0112 VRB18G28KT 2000 TSRA BKN022CB
Weather As Of 31 Jan 2023 15:00
Description Broken clouds
Wind 41 km/h from North-West (310°)
Cloud Cover 75%
Precipitation Rain: none, Snow: none
Sunrise 06:49
Sunset 17:17
Lounges Premium Lounge, Main Terminal
Rotations During the last 90 days there were
10 flights from LGW
10 flights to LGW



Support Speedbird Online

© 2017-2023 Speedbird Online